Historyczne dane pomiarowe

Dodano dane terminowe – wersja testowa.

Dane z okresu 1951-2019

Wersja bazy: 1.34 [2019-03-16, lista zmian], aktualizacja planowana na 2019-04-15

Dane meteo z obszaru Polski uzyskane na podstawie danych udostępnionych przez Instytut Meteorologii i Gospodarki Wodnej – Państwowy Instytut Badawczy.

 

Wybierz Datę:    

       

TemperaturaWilgotnośćWiatrCiśnienieOpadyŚniegCzas trwania zjawisk
 Stacja t tx tn tng RH VA  wxwx mslp ppp RRR   cm mm wxwxwxwxwxwxwx
1999-08-14 15.1 19.3 12.5 11.0 81.3- 5.7 2.3---- 3.0------------
1999-08-13 15.8 21.5 12.2 11.9 66.8- 4.3 3.7---- 1.6------------
1999-08-12 16.6 21.9 12.3 9.3 68.8- 3.7 3.0---- 0.0------------
1999-08-11 18.1 24.1 11.8 10.6 83.3- 5.0 1.0---- 2.1------------
1999-08-10 19.4 28.5 12.1 9.1 49.8- 5.0 1.7---- 17.8------------
1999-08-09 21.9 28.6 16.3 13.3 68.3- 5.0 3.0---- 0.0------------
1999-08-08 18.0 21.6 13.7 8.9 76.8- 6.0 1.3---- 7.5------------
1999-08-07 19.6 27.5 12.0 6.9 37.0- 3.0 1.7---- 0.0------------
1999-08-06 20.8 29.2 11.5 6.7 35.8- 3.0 0.7---- 0.0------------
1999-08-05 19.2 27.7 7.7 4.2 40.8- 2.0 0.3---- 0.0------------
1999-08-04 17.7 26.6 8.4 4.6 42.8- 4.0 0.7---- 0.0------------
1999-08-03 18.2 26.4 8.6 5.4 39.0- 2.3 0.7---- 0.0------------
1999-08-02 18.5 25.6 9.0 5.6 35.5- 2.0 1.7---- 0.0------------
1999-08-01 18.4 24.5 10.0 7.1 40.3- 2.0 1.7---- 0.0------------
1999-07-31 19.4 26.5 10.1 6.1 38.8- 2.3 4.3---- 0.0------------
1999-07-30 18.6 25.6 10.8 8.0 49.0- 3.0 2.3---- 0.0------------
1999-07-29 17.8 24.7 8.5 8.0 43.8- 2.0 2.3---- 0.0------------
1999-07-28 17.6 23.5 10.8 9.8 54.0- 5.0 2.3---- 0.2------------
1999-07-27 16.7 22.9 8.9 6.3 54.3- 4.0 3.7---- 0.0------------
1999-07-26 18.8 25.4 12.1 8.8 59.0- 5.3 1.7---- 5.1------------
1999-07-25 18.6 24.9 13.0 7.1 42.8- 4.0 2.0---- 0.0------------
1999-07-24 17.6 23.1 14.3 9.2 46.8- 2.7 2.0---- 0.0------------
1999-07-23 17.3 21.0 12.3 5.5 50.5- 2.7 0.7---- 0.0------------
1999-07-22 18.1 22.1 13.3 11.0 62.5- 5.0 4.3---- 0.0------------
1999-07-21 20.8 28.0 16.3 12.8 42.8- 3.7 1.3---- 1.1------------
1999-07-20 21.8 29.0 11.0 8.2 30.3- 2.3 0.7---- 0.0------------
1999-07-19 21.0 26.0 16.8 16.4 42.0- 2.7 1.7---- 0.0------------
1999-07-18 17.4 25.1 8.0 7.5 54.0- 4.0 0.3---- 0.0------------
1999-07-17 15.3 22.3 7.3 6.3 63.0- 4.7 1.7---- 0.0------------
1999-07-16 16.0 20.5 11.2 7.3 68.5- 5.0 2.3---- 1.2------------
1999-07-15 17.0 20.3 15.2 12.4 79.0- 6.0 2.3---- 0.0------------
1999-07-14 20.7 26.4 15.4 15.0 71.8- 5.7 2.3---- 25.6------------
1999-07-13 23.0 29.2 16.3 12.4 34.3- 2.3 2.0---- 0.2------------
1999-07-12 21.2 28.0 10.7 9.5 31.0- 2.3 2.3---- 0.0------------
1999-07-11 21.5 27.0 13.0 10.8 29.5- 2.0 1.7---- 0.0------------
1999-07-10 19.6 24.9 12.5 10.9 41.3- 2.7 4.3---- 0.0------------
1999-07-09 18.4 23.4 14.0 12.6 62.0- 3.7 5.0---- 0.0------------
1999-07-08 17.6 19.9 15.0 12.8 87.5- 6.3 2.3---- 2.7------------
1999-07-07 18.9 23.3 16.3 15.5 83.8- 4.7 1.3---- 0.4------------
1999-07-06 24.4 31.2 18.5 14.3 37.0- 3.7 2.3---- 10.5------------
1999-07-05 25.8 32.3 18.2 13.1 28.8- 2.0 2.3---- 0.0------------
1999-07-04 24.6 30.0 20.7 9.3 31.8- 2.3 3.3---- 0.0------------
1999-07-03 18.9 24.9 10.2 6.7 33.0- 2.7 0.7---- 0.0------------
1999-07-02 19.1 23.2 16.1 9.1 46.8- 4.0 2.3---- 0.0------------
1999-07-01 20.8 26.3 12.7 9.1 37.0- 2.0 0.0---- 0.0------------
1999-06-30 18.2 24.7 11.5 7.8 50.3- 3.3 0.3---- 0.0------------
1999-06-29 18.8 24.8 15.6 11.8 61.0- 3.7 2.3---- 0.0------------
1999-06-28 21.7 27.5 13.7 8.0 39.0- 2.3 0.7---- 1.3------------
1999-06-27 19.1 24.5 12.2 10.0 46.8- 2.7 3.0---- 0.0------------
1999-06-26 12.9 19.1 5.1 3.3 77.8- 5.3 1.3---- 0.0------------
1999-06-25 12.6 16.6 9.4 8.0 75.3- 5.7 2.3---- 4.7------------
1999-06-24 12.8 14.9 10.4 9.9 82.3- 6.0 1.7---- 0.6------------
1999-06-23 11.7 14.9 9.6 9.2 89.3- 8.0 8.3---- 6.5------------
1999-06-22 13.4 16.4 11.6 11.0 91.0- 8.0 3.7---- 17.6------------
1999-06-21 18.3 21.5 15.9 15.0 77.0- 6.3 1.0---- 15.1------------
1999-06-20 19.1 23.8 13.9 11.1 71.0- 3.7 1.0---- 0.0------------
1999-06-19 19.9 25.3 14.8 13.5 77.3- 5.7 1.7---- 0.2------------
1999-06-18 16.9 19.3 14.7 13.6 84.5- 6.0 2.3---- 15.3------------
1999-06-17 17.8 22.0 12.7 12.3 66.0- 5.7 1.7---- 0.4------------
1999-06-16 17.6 21.0 15.2 14.0 85.3- 5.7 1.3---- 0.0------------
275.2 ms

 

Źródłem pochodzenia danych jest Instytut Meteorologii i Gospodarki Wodnej – Państwowy Instytut Badawczy. Dane Instytutu Meteorologii i Gospodarki Wodnej – Państwowego Instytutu Badawczego zostały przetworzone.

Dane źródłowe można odnaleźć na stronie https://dane.imgw.pl